Time,TemperatureF,DewpointF,PressureIn,WindDirection,WindDirectionDegrees,WindSpeedMPH,WindSpeedGustMPH,Humidity,HourlyPrecipIn,Conditions,Clouds,dailyrainin,SoftwareType,DateUTC
2013-10-20 00:05:00,40.9,38.0,29.80,SW,219,3.0,8.0,90,0.01,,,0.00,weatherlink.com 1.10,2013-10-20 04:05:00,
2013-10-20 00:20:00,41.7,38.0,29.80,WSW,257,7.0,10.0,88,0.00,,,0.00,weatherlink.com 1.10,2013-10-20 04:20:00,
2013-10-20 00:35:00,42.2,39.0,29.80,SSE,153,7.0,13.0,87,0.00,,,0.00,weatherlink.com 1.10,2013-10-20 04:35:00,
2013-10-20 00:50:00,42.2,39.0,29.80,WSW,249,10.0,11.0,88,0.00,,,0.00,weatherlink.com 1.10,2013-10-20 04:50:00,
2013-10-20 01:05:00,41.7,38.0,29.80,WSW,255,2.0,6.0,88,0.00,,,0.00,weatherlink.com 1.10,2013-10-20 05:05:00,
2013-10-20 01:20:00,41.3,39.0,29.80,WSW,238,5.0,8.0,90,0.00,,,0.00,weatherlink.com 1.10,2013-10-20 05:20:00,
2013-10-20 01:35:00,41.5,39.0,29.81,WNW,293,1.0,7.0,91,0.00,,,0.00,weatherlink.com 1.10,2013-10-20 05:35:00,
2013-10-20 01:50:00,41.2,39.0,29.81,WSW,245,2.0,9.0,92,0.02,,,0.02,weatherlink.com 1.10,2013-10-20 05:50:00,
2013-10-20 02:05:00,40.9,39.0,29.81,West,269,0.0,6.0,93,0.04,,,0.04,weatherlink.com 1.10,2013-10-20 06:05:00,
2013-10-20 02:20:00,40.7,39.0,29.82,NW,304,0.0,7.0,94,0.05,,,0.05,weatherlink.com 1.10,2013-10-20 06:20:00,
2013-10-20 02:35:00,40.7,39.0,29.81,SSE,158,0.0,2.0,94,0.06,,,0.06,weatherlink.com 1.10,2013-10-20 06:35:00,
2013-10-20 02:50:00,40.3,39.0,29.80,SE,143,1.0,4.0,95,0.04,,,0.06,weatherlink.com 1.10,2013-10-20 06:50:00,
2013-10-20 03:05:00,39.8,39.0,29.80,SSE,155,0.0,5.0,95,0.02,,,0.06,weatherlink.com 1.10,2013-10-20 07:05:00,
2013-10-20 03:20:00,39.8,39.0,29.80,SSE,167,0.0,4.0,95,0.01,,,0.06,weatherlink.com 1.10,2013-10-20 07:20:00,
2013-10-20 03:35:00,40.1,39.0,29.80,SW,225,0.0,7.0,95,0.00,,,0.06,weatherlink.com 1.10,2013-10-20 07:35:00,
2013-10-20 03:51:00,39.9,39.0,29.80,SW,231,3.0,5.0,95,0.00,,,0.06,weatherlink.com 1.10,2013-10-20 07:51:00,
2013-10-20 04:06:00,40.2,39.0,29.80,South,169,5.0,6.0,96,0.00,,,0.06,weatherlink.com 1.10,2013-10-20 08:06:00,
2013-10-20 04:21:00,40.3,39.0,29.80,South,169,2.0,8.0,95,0.00,,,0.06,weatherlink.com 1.10,2013-10-20 08:21:00,
2013-10-20 04:36:00,40.3,39.0,29.80,South,179,4.0,8.0,95,0.00,,,0.06,weatherlink.com 1.10,2013-10-20 08:36:00,
2013-10-20 04:51:00,40.6,39.0,29.80,South,176,1.0,9.0,95,0.00,,,0.06,weatherlink.com 1.10,2013-10-20 08:51:00,
2013-10-20 05:06:00,41.1,40.0,29.80,West,263,8.0,8.0,94,0.00,,,0.06,weatherlink.com 1.10,2013-10-20 09:06:00,
2013-10-20 05:21:00,41.5,40.0,29.80,WSW,240,1.0,9.0,94,0.00,,,0.06,weatherlink.com 1.10,2013-10-20 09:21:00,
2013-10-20 05:36:00,41.9,40.0,29.79,South,181,5.0,8.0,94,0.00,,,0.06,weatherlink.com 1.10,2013-10-20 09:36:00,
2013-10-20 05:51:00,41.9,40.0,29.80,SW,217,0.0,8.0,93,0.00,,,0.06,weatherlink.com 1.10,2013-10-20 09:51:00,
2013-10-20 06:06:00,41.1,39.0,29.80,WSW,246,0.0,4.0,93,0.00,,,0.06,weatherlink.com 1.10,2013-10-20 10:06:00,
2013-10-20 06:21:00,40.6,39.0,29.80,WSW,238,0.0,6.0,94,0.00,,,0.06,weatherlink.com 1.10,2013-10-20 10:21:00,
2013-10-20 06:36:00,40.3,39.0,29.80,SSW,203,2.0,4.0,94,0.00,,,0.06,weatherlink.com 1.10,2013-10-20 10:36:00,
2013-10-20 06:51:00,40.0,39.0,29.80,South,181,1.0,7.0,94,0.00,,,0.06,weatherlink.com 1.10,2013-10-20 10:51:00,
2013-10-20 07:06:00,39.7,38.0,29.80,SSE,163,2.0,4.0,94,0.00,,,0.06,weatherlink.com 1.10,2013-10-20 11:06:00,
2013-10-20 07:21:00,39.6,38.0,29.81,SSE,166,6.0,6.0,95,0.00,,,0.06,weatherlink.com 1.10,2013-10-20 11:21:00,
2013-10-20 07:36:00,39.7,38.0,29.81,SW,225,2.0,6.0,95,0.00,,,0.06,weatherlink.com 1.10,2013-10-20 11:36:00,
2013-10-20 07:51:00,39.7,38.0,29.81,SSW,204,3.0,7.0,94,0.00,,,0.06,weatherlink.com 1.10,2013-10-20 11:51:00,
2013-10-20 08:06:00,39.8,38.0,29.82,South,190,0.0,9.0,94,0.00,,,0.06,weatherlink.com 1.10,2013-10-20 12:06:00,
2013-10-20 08:21:00,39.6,38.0,29.82,SW,219,2.0,5.0,94,0.00,,,0.06,weatherlink.com 1.10,2013-10-20 12:21:00,
2013-10-20 08:36:00,39.7,38.0,29.83,SW,226,1.0,6.0,94,0.01,,,0.07,weatherlink.com 1.10,2013-10-20 12:36:00,
2013-10-20 08:51:00,40.1,39.0,29.84,WSW,248,4.0,7.0,94,0.01,,,0.07,weatherlink.com 1.10,2013-10-20 12:51:00,
2013-10-20 09:06:00,41.2,39.0,29.85,SSE,160,2.0,6.0,93,0.01,,,0.07,weatherlink.com 1.10,2013-10-20 13:06:00,
2013-10-20 09:21:00,42.7,40.0,29.86,SSE,166,1.0,8.0,91,0.01,,,0.07,weatherlink.com 1.10,2013-10-20 13:21:00,
2013-10-20 09:36:00,43.0,40.0,29.86,SSW,201,6.0,8.0,90,0.00,,,0.07,weatherlink.com 1.10,2013-10-20 13:36:00,
2013-10-20 09:51:00,42.8,40.0,29.87,SW,229,3.0,9.0,90,0.00,,,0.07,weatherlink.com 1.10,2013-10-20 13:51:00,
2013-10-20 10:06:00,43.1,40.0,29.87,SW,235,0.0,8.0,90,0.00,,,0.07,weatherlink.com 1.10,2013-10-20 14:06:00,
2013-10-20 10:21:00,44.8,42.0,29.87,SW,229,4.0,7.0,89,0.00,,,0.07,weatherlink.com 1.10,2013-10-20 14:21:00,
2013-10-20 10:36:00,45.4,42.0,29.88,SW,229,6.0,9.0,87,0.00,,,0.07,weatherlink.com 1.10,2013-10-20 14:36:00,
2013-10-20 10:51:00,46.0,42.0,29.87,WSW,248,5.0,8.0,85,0.00,,,0.07,weatherlink.com 1.10,2013-10-20 14:51:00,
2013-10-20 11:06:00,46.3,42.0,29.88,SSE,166,4.0,9.0,84,0.00,,,0.07,weatherlink.com 1.10,2013-10-20 15:06:00,
2013-10-20 11:21:00,47.3,42.0,29.88,SW,224,6.0,9.0,82,0.00,,,0.07,weatherlink.com 1.10,2013-10-20 15:21:00,
2013-10-20 11:36:00,48.7,42.0,29.88,WSW,251,10.0,10.0,79,0.00,,,0.07,weatherlink.com 1.10,2013-10-20 15:36:00,
2013-10-20 11:51:00,49.2,41.0,29.88,NW,316,4.0,8.0,73,0.00,,,0.07,weatherlink.com 1.10,2013-10-20 15:51:00,
2013-10-20 12:06:00,49.7,41.0,29.88,West,268,2.0,10.0,71,0.00,,,0.07,weatherlink.com 1.10,2013-10-20 16:06:00,
2013-10-20 12:21:00,49.5,38.0,29.88,WNW,301,10.0,10.0,66,0.00,,,0.07,weatherlink.com 1.10,2013-10-20 16:21:00,
2013-10-20 12:37:00,50.3,40.0,29.89,WSW,258,5.0,12.0,67,0.00,,,0.07,weatherlink.com 1.10,2013-10-20 16:37:00,
2013-10-20 12:53:00,51.1,40.0,29.89,NNW,339,5.0,12.0,66,0.00,,,0.07,weatherlink.com 1.10,2013-10-20 16:53:00,
2013-10-20 13:07:00,50.6,39.0,29.89,WNW,290,3.0,9.0,64,0.00,,,0.07,weatherlink.com 1.10,2013-10-20 17:07:00,
2013-10-20 13:22:00,52.0,41.0,29.88,NNW,329,5.0,8.0,66,0.00,,,0.07,weatherlink.com 1.10,2013-10-20 17:22:00,
2013-10-20 13:37:00,51.1,39.0,29.88,SW,226,3.0,10.0,64,0.00,,,0.07,weatherlink.com 1.10,2013-10-20 17:37:00,
2013-10-20 13:52:00,51.8,39.0,29.88,SW,229,8.0,12.0,62,0.00,,,0.07,weatherlink.com 1.10,2013-10-20 17:52:00,
2013-10-20 14:07:00,52.0,40.0,29.87,NW,309,3.0,9.0,65,0.00,,,0.07,weatherlink.com 1.10,2013-10-20 18:07:00,
2013-10-20 14:22:00,53.0,38.0,29.87,WSW,237,4.0,11.0,57,0.00,,,0.07,weatherlink.com 1.10,2013-10-20 18:22:00,
2013-10-20 14:37:00,53.4,38.0,29.86,SSW,201,6.0,17.0,56,0.00,,,0.07,weatherlink.com 1.10,2013-10-20 18:37:00,
2013-10-20 14:52:00,53.0,39.0,29.86,SW,225,5.0,12.0,59,0.00,,,0.07,weatherlink.com 1.10,2013-10-20 18:52:00,
2013-10-20 15:07:00,54.3,39.0,29.86,WSW,247,8.0,13.0,57,0.00,,,0.07,weatherlink.com 1.10,2013-10-20 19:07:00,
2013-10-20 15:22:00,54.9,40.0,29.86,SSE,166,8.0,11.0,57,0.00,,,0.07,weatherlink.com 1.10,2013-10-20 19:22:00,
2013-10-20 15:37:00,54.9,39.0,29.86,WSW,257,5.0,18.0,55,0.00,,,0.07,weatherlink.com 1.10,2013-10-20 19:37:00,
2013-10-20 15:52:00,54.9,40.0,29.86,West,274,4.0,8.0,57,0.00,,,0.07,weatherlink.com 1.10,2013-10-20 19:52:00,
2013-10-20 16:07:00,55.1,39.0,29.85,WSW,246,3.0,13.0,56,0.00,,,0.07,weatherlink.com 1.10,2013-10-20 20:07:00,
2013-10-20 16:22:00,55.3,39.0,29.85,WSW,253,3.0,8.0,55,0.00,,,0.07,weatherlink.com 1.10,2013-10-20 20:22:00,
2013-10-20 16:37:00,56.3,40.0,29.85,WSW,246,5.0,7.0,54,0.00,,,0.07,weatherlink.com 1.10,2013-10-20 20:37:00,
2013-10-20 16:52:00,55.1,40.0,29.85,WSW,242,4.0,4.0,57,0.00,,,0.07,weatherlink.com 1.10,2013-10-20 20:52:00,
2013-10-20 17:07:00,55.3,40.0,29.85,SSW,211,9.0,9.0,56,0.00,,,0.07,weatherlink.com 1.10,2013-10-20 21:07:00,
2013-10-20 17:22:00,54.8,40.0,29.85,SE,135,0.0,5.0,58,0.00,,,0.07,weatherlink.com 1.10,2013-10-20 21:22:00,
2013-10-20 17:37:00,54.9,41.0,29.85,West,281,4.0,5.0,59,0.00,,,0.07,weatherlink.com 1.10,2013-10-20 21:37:00,
2013-10-20 17:52:00,54.7,41.0,29.85,SSE,153,0.0,5.0,60,0.00,,,0.07,weatherlink.com 1.10,2013-10-20 21:52:00,
2013-10-20 18:07:00,54.3,41.0,29.85,SSE,161,0.0,3.0,61,0.00,,,0.07,weatherlink.com 1.10,2013-10-20 22:07:00,
2013-10-20 18:22:00,53.9,42.0,29.84,SE,141,0.0,3.0,64,0.00,,,0.07,weatherlink.com 1.10,2013-10-20 22:22:00,
2013-10-20 18:37:00,53.5,42.0,29.84,SSW,207,0.0,4.0,66,0.00,,,0.07,weatherlink.com 1.10,2013-10-20 22:37:00,
2013-10-20 18:52:00,53.1,43.0,29.84,SSE,148,3.0,3.0,68,0.00,,,0.07,weatherlink.com 1.10,2013-10-20 22:52:00,
2013-10-20 19:07:00,52.8,43.0,29.84,SE,139,0.0,2.0,69,0.00,,,0.07,weatherlink.com 1.10,2013-10-20 23:07:00,
2013-10-20 19:22:00,52.7,43.0,29.84,SSE,148,0.0,4.0,70,0.00,,,0.07,weatherlink.com 1.10,2013-10-20 23:22:00,
2013-10-20 19:37:00,52.5,43.0,29.84,SSE,166,3.0,6.0,71,0.00,,,0.07,weatherlink.com 1.10,2013-10-20 23:37:00,
2013-10-20 19:52:00,52.3,44.0,29.83,SE,129,1.0,4.0,72,0.00,,,0.07,weatherlink.com 1.10,2013-10-20 23:52:00,
2013-10-20 20:07:00,51.9,43.0,29.83,ESE,109,1.0,4.0,73,0.00,,,0.07,weatherlink.com 1.10,2013-10-21 00:07:00,
2013-10-20 20:22:00,51.6,44.0,29.82,SSE,153,0.0,3.0,74,0.00,,,0.07,weatherlink.com 1.10,2013-10-21 00:22:00,
2013-10-20 20:37:00,51.4,43.0,29.81,SE,127,2.0,4.0,74,0.00,,,0.07,weatherlink.com 1.10,2013-10-21 00:37:00,
2013-10-20 20:52:00,51.6,43.0,29.81,ESE,113,1.0,6.0,73,0.00,,,0.07,weatherlink.com 1.10,2013-10-21 00:52:00,
2013-10-20 21:07:00,52.0,43.0,29.80,SSE,150,0.0,8.0,71,0.00,,,0.07,weatherlink.com 1.10,2013-10-21 01:07:00,
2013-10-20 21:22:00,52.1,43.0,29.80,South,169,3.0,7.0,71,0.00,,,0.07,weatherlink.com 1.10,2013-10-21 01:22:00,
2013-10-20 21:37:00,52.4,43.0,29.80,ESE,117,0.0,7.0,70,0.00,,,0.07,weatherlink.com 1.10,2013-10-21 01:37:00,
2013-10-20 21:52:00,52.8,43.0,29.80,SE,124,1.0,8.0,69,0.00,,,0.07,weatherlink.com 1.10,2013-10-21 01:52:00,
2013-10-20 22:07:00,53.0,43.0,29.79,SSE,158,3.0,10.0,69,0.00,,,0.07,weatherlink.com 1.10,2013-10-21 02:07:00,
2013-10-20 22:22:00,54.1,43.0,29.79,SW,233,2.0,12.0,67,0.00,,,0.07,weatherlink.com 1.10,2013-10-21 02:22:00,
2013-10-20 22:37:00,55.0,43.0,29.78,SSE,166,9.0,14.0,65,0.00,,,0.07,weatherlink.com 1.10,2013-10-21 02:37:00,
2013-10-20 23:58:00,55.1,44.0,29.77,SW,228,10.0,15.0,66,0.00,,,0.07,weatherlink.com 1.10,2013-10-21 03:58:00,